Time;durP1;ratioP1;P1;durP2;ratioP2;P2;SDS_P1;SDS_P2;PMS_P1;PMS_P2;Temp;Humidity;BMP_temperature;BMP_pressure;BME280_temperature;BME280_humidity;BME280_pressure;Samples;Min_cycle;Max_cycle;Signal;HPM_P1;HPM_P2
2023/02/06 00:01:48;;;;;;;4.83;2.37;;;;;;;-3.87;84.31;101343.19;5033572;28;20029;-66
2023/02/06 00:04:13;;;;;;;3.27;2.03;;;;;;;-3.62;84.29;101382.03;5048357;28;20045;-66
2023/02/06 00:06:39;;;;;;;4.17;2.33;;;;;;;-3.66;84.89;101380.81;5049632;28;20031;-66
2023/02/06 00:09:05;;;;;;;5.47;2.30;;;;;;;-3.64;85.91;101394.50;5045551;28;20395;-66
2023/02/06 00:11:31;;;;;;;6.90;2.07;;;;;;;-3.63;87.32;101408.00;5045429;28;20040;-67
2023/02/06 00:13:56;;;;;;;3.90;2.30;;;;;;;-4.00;87.21;101362.03;5047381;28;20025;-67
2023/02/06 00:16:29;;;;;;;4.50;2.30;;;;;;;-3.99;87.88;101363.78;5051900;28;20037;-65
2023/02/06 00:18:55;;;;;;;6.10;2.20;;;;;;;-3.78;87.20;101418.22;5061187;28;20032;-67
2023/02/06 00:21:23;;;;;;;4.67;2.43;;;;;;;-3.81;87.55;101397.72;5016568;28;20490;-66
2023/02/06 00:23:49;;;;;;;4.03;2.20;;;;;;;-3.77;87.71;101397.31;5052026;28;20476;-67
2023/02/06 00:26:15;;;;;;;4.17;2.37;;;;;;;-3.83;89.21;101395.75;5052162;28;20099;-67
2023/02/06 00:28:40;;;;;;;4.90;2.60;;;;;;;-3.97;88.89;101387.56;5052197;28;20483;-66
2023/02/06 00:31:07;;;;;;;4.97;2.27;;;;;;;-4.14;89.92;101372.22;5051361;28;20115;-67
2023/02/06 00:33:34;;;;;;;4.53;2.43;;;;;;;-4.01;90.28;101389.56;5051771;28;20162;-67
2023/02/06 00:35:59;;;;;;;4.43;2.47;;;;;;;-3.98;89.94;101385.78;5051352;28;20024;-67
2023/02/06 00:38:25;;;;;;;3.60;2.20;;;;;;;-4.00;89.39;101382.19;5051464;28;20475;-67
2023/02/06 00:40:51;;;;;;;5.87;3.10;;;;;;;-3.90;90.02;101401.72;5031483;28;20041;-67
2023/02/06 00:43:16;;;;;;;11.90;4.03;;;;;;;-3.97;90.49;101399.28;5050853;28;20021;-67
2023/02/06 00:45:41;;;;;;;14.47;4.87;;;;;;;-4.01;90.35;101403.09;5049075;28;20411;-67
2023/02/06 00:48:27;;;;;;;8.57;3.23;;;;;;;-4.02;90.47;101403.81;5009198;28;20091;-66
2023/02/06 00:50:53;;;;;;;5.03;2.70;;;;;;;-4.09;90.09;101401.34;5008223;28;20049;-67
2023/02/06 00:53:18;;;;;;;7.27;2.67;;;;;;;-4.11;89.70;101383.53;5008726;28;20491;-67
2023/02/06 00:55:44;;;;;;;3.77;2.50;;;;;;;-4.31;90.56;101373.78;5009482;28;20037;-67
2023/02/06 00:58:10;;;;;;;4.27;2.43;;;;;;;-4.47;90.72;101342.56;5008771;28;20112;-67
2023/02/06 01:00:35;;;;;;;5.00;2.50;;;;;;;-4.13;91.87;101395.06;5009334;28;20044;-67
2023/02/06 01:03:00;;;;;;;4.40;2.70;;;;;;;-4.14;91.52;101392.38;4992672;28;20050;-67
2023/02/06 01:05:26;;;;;;;4.20;2.30;;;;;;;-4.31;92.46;101368.75;5008681;28;20056;-68
2023/02/06 01:07:52;;;;;;;4.87;2.60;;;;;;;-4.32;93.14;101388.75;4975886;28;20041;-67
2023/02/06 01:10:17;;;;;;;3.57;2.30;;;;;;;-4.45;92.52;101363.78;5008000;28;20041;-67
2023/02/06 01:12:43;;;;;;;5.73;2.70;;;;;;;-4.29;92.34;101369.78;5008646;28;20538;-67
2023/02/06 01:15:11;;;;;;;4.47;2.40;;;;;;;-4.20;92.71;101395.13;5008823;28;20128;-67
2023/02/06 01:17:37;;;;;;;4.87;3.00;;;;;;;-4.33;92.29;101382.78;4996230;28;20030;-68
2023/02/06 01:20:03;;;;;;;5.17;2.73;;;;;;;-4.45;93.05;101381.41;5039773;28;20045;-67
2023/02/06 01:22:29;;;;;;;4.40;2.57;;;;;;;-4.51;93.77;101381.66;5049345;28;20033;-67
2023/02/06 01:24:54;;;;;;;5.77;2.83;;;;;;;-4.59;94.37;101382.41;5050123;28;20150;-67
2023/02/06 01:27:19;;;;;;;4.53;2.40;;;;;;;-4.54;94.64;101371.22;5049959;28;20036;-67
2023/02/06 01:29:45;;;;;;;5.13;2.80;;;;;;;-4.68;94.65;101341.09;5050717;28;20025;-68
2023/02/06 01:32:10;;;;;;;4.10;2.33;;;;;;;-4.57;95.44;101363.34;5050351;28;20040;-68
2023/02/06 01:34:36;;;;;;;4.73;2.30;;;;;;;-4.69;95.16;101342.69;5050132;28;20017;-68
2023/02/06 01:39:48;;;;;;;6.27;2.67;;;;;;;-4.79;95.82;101315.56;5191319;23;20519;-68
2023/02/06 01:42:13;;;;;;;4.93;2.60;;;;;;;-4.65;96.52;101352.38;5031767;28;20039;-66
2023/02/06 01:44:39;;;;;;;5.30;2.93;;;;;;;-4.65;96.36;101351.47;5029681;28;20036;-67
2023/02/06 01:47:04;;;;;;;5.90;3.10;;;;;;;-4.95;95.91;101290.28;5031431;28;20025;-67
2023/02/06 01:49:44;;;;;;;4.70;2.53;;;;;;;-4.56;96.35;101355.00;5030628;28;20515;-68
2023/02/06 01:52:15;;;;;;;;;;;;;;;-4.51;96.10;101353.03;5031298;28;20049;-68
2023/02/06 01:54:45;;;;;;;6.37;2.73;;;;;;;-4.48;95.98;101348.34;5031070;28;19913;-68
2023/02/06 01:57:12;;;;;;;5.47;2.67;;;;;;;-4.58;96.65;101343.88;5030551;28;20556;-68
2023/02/06 01:59:41;;;;;;;5.77;2.90;;;;;;;-4.56;96.67;101335.78;5031380;28;20033;-68
2023/02/06 02:02:07;;;;;;;5.32;2.75;;;;;;;-4.55;96.56;101322.44;4996430;28;20037;-67
2023/02/06 02:04:33;;;;;;;6.10;3.13;;;;;;;-4.38;95.84;101344.44;5031183;28;20087;-68
2023/02/06 02:07:23;;;;;;;4.90;3.00;;;;;;;-4.45;96.36;101308.34;5031453;28;20100;-68
2023/02/06 02:09:49;;;;;;;5.40;2.63;;;;;;;-4.26;95.49;101342.41;5026768;28;20649;-67
2023/02/06 02:12:15;;;;;;;7.33;3.10;;;;;;;-4.23;94.75;101344.38;5031348;28;20144;-67
2023/02/06 02:14:43;;;;;;;4.87;2.63;;;;;;;-4.11;94.64;101347.31;4996265;28;20487;-68
2023/02/06 02:17:51;;;;;;;4.97;2.60;;;;;;;-4.07;93.88;101346.94;5031090;28;20043;-68
2023/02/06 02:20:28;;;;;;;6.40;3.43;;;;;;;-4.14;94.73;101350.41;4948741;29;20039;-67
2023/02/06 02:23:24;;;;;;;4.00;2.60;;;;;;;-4.07;94.43;101354.50;4950760;28;20050;-67
2023/02/06 02:26:28;;;;;;;4.63;3.00;;;;;;;-4.02;94.56;101349.97;4950851;29;20051;-68
2023/02/06 02:29:19;;;;;;;6.80;2.60;;;;;;;-4.00;95.08;101351.03;4893865;29;20037;-68
2023/02/06 02:32:09;;;;;;;5.17;2.63;;;;;;;-3.98;95.13;101354.63;4801641;29;20099;-68
2023/02/06 02:34:49;;;;;;;5.57;2.70;;;;;;;-3.97;94.94;101351.38;4801798;29;20043;-68
2023/02/06 02:37:39;;;;;;;4.80;2.77;;;;;;;-3.91;94.35;101357.09;4801735;29;20138;-68
2023/02/06 02:40:25;;;;;;;5.40;2.90;;;;;;;-3.89;93.85;101363.16;4801500;29;20533;-68
2023/02/06 02:43:15;;;;;;;6.40;2.90;;;;;;;-3.90;92.25;101357.25;4801727;29;20039;-68
2023/02/06 02:45:45;;;;;;;4.53;2.70;;;;;;;-3.95;91.92;101354.94;4801524;29;20070;-67
2023/02/06 02:48:15;;;;;;;4.95;2.50;;;;;;;-4.10;92.50;101362.63;4801782;29;20039;-68
2023/02/06 02:50:42;;;;;;;5.63;2.40;;;;;;;-4.10;93.19;101341.53;4811127;29;20510;-67
2023/02/06 02:53:07;;;;;;;4.40;2.80;;;;;;;-4.08;93.78;101366.19;4801476;29;20042;-68
2023/02/06 02:55:33;;;;;;;5.03;2.60;;;;;;;-4.13;94.03;101356.34;4801265;29;20161;-68
2023/02/06 02:58:22;;;;;;;5.50;3.07;;;;;;;-4.06;95.03;101361.34;4817590;29;20190;-68
2023/02/06 03:00:53;;;;;;;5.70;3.08;;;;;;;-4.02;96.28;101362.59;4884365;29;20048;-68
2023/02/06 03:03:21;;;;;;;6.37;3.30;;;;;;;-4.29;96.56;101304.25;4893377;29;20047;-68
2023/02/06 03:06:09;;;;;;;6.13;3.63;;;;;;;-3.87;96.73;101353.28;4893196;29;20085;-68
2023/02/06 03:09:07;;;;;;;8.67;3.27;;;;;;;-3.75;96.02;101354.56;4953205;28;20045;-68
2023/02/06 03:11:38;;;;;;;10.73;3.30;;;;;;;-3.71;94.81;101339.06;4931001;29;20055;-67
2023/02/06 03:14:39;;;;;;;7.33;3.10;;;;;;;-3.58;94.56;101346.31;4935997;29;20058;-68
2023/02/06 03:17:09;;;;;;;7.80;3.33;;;;;;;-3.53;94.20;101359.44;4892757;29;20131;-68
2023/02/06 03:19:42;;;;;;;15.60;3.80;;;;;;;-3.53;95.53;101352.72;4892697;29;20054;-68
2023/02/06 03:22:09;;;;;;;10.33;3.53;;;;;;;-3.82;96.20;101295.00;4893192;29;20467;-68
2023/02/06 03:24:38;;;;;;;8.43;3.87;;;;;;;-3.76;96.03;101312.44;4892936;29;20029;-67
2023/02/06 03:27:09;;;;;;;9.77;4.13;;;;;;;-3.51;96.30;101356.34;4877211;29;20756;-68
2023/02/06 03:29:37;;;;;;;5.87;2.93;;;;;;;-3.48;96.73;101356.63;4892764;29;20154;-68
2023/02/06 03:32:10;;;;;;;5.90;3.10;;;;;;;-3.47;96.76;101372.72;4892746;29;20044;-67
2023/02/06 03:34:57;;;;;;;5.97;3.23;;;;;;;-3.61;97.01;101363.66;4894594;29;20052;-68
2023/02/06 03:37:23;;;;;;;6.00;3.53;;;;;;;-3.59;96.59;101367.22;4896165;29;20122;-67
2023/02/06 03:39:49;;;;;;;6.87;3.37;;;;;;;-3.59;95.93;101369.75;4895166;29;20065;-68
2023/02/06 03:42:16;;;;;;;5.37;3.00;;;;;;;-3.66;95.23;101370.72;4894991;29;20168;-68
2023/02/06 03:44:47;;;;;;;5.70;3.23;;;;;;;-3.57;93.46;101375.88;4895014;29;20067;-68
2023/02/06 03:47:15;;;;;;;6.93;3.33;;;;;;;-3.53;92.06;101365.34;4896062;29;20072;-68
2023/02/06 03:49:44;;;;;;;5.90;3.47;;;;;;;-3.52;90.78;101363.75;4932799;29;20051;-67
2023/02/06 03:52:12;;;;;;;;;;;;;;;-3.50;90.59;101363.19;4933068;29;20035;-67
2023/02/06 03:54:44;;;;;;;6.27;3.23;;;;;;;-3.78;91.13;101302.16;5002878;28;19917;-67
2023/02/06 03:57:11;;;;;;;4.70;2.70;;;;;;;-3.53;91.12;101357.78;5012668;28;20040;-67
2023/02/06 03:59:37;;;;;;;6.50;3.60;;;;;;;-3.50;90.74;101355.59;5013962;28;20022;-68
2023/02/06 04:02:04;;;;;;;5.17;3.27;;;;;;;-3.47;91.14;101365.13;5041555;28;20032;-68
2023/02/06 04:04:41;;;;;;;6.87;3.60;;;;;;;-3.43;91.08;101364.72;5014866;28;20029;-68
2023/02/06 04:07:17;;;;;;;6.53;3.07;;;;;;;-3.74;90.93;101300.84;5032289;28;20056;-68
2023/02/06 04:09:42;;;;;;;5.37;3.30;;;;;;;-3.44;91.43;101357.88;5032093;28;20061;-68
2023/02/06 04:12:08;;;;;;;6.00;3.47;;;;;;;-3.56;91.80;101354.94;5032175;28;20525;-68
2023/02/06 04:14:35;;;;;;;6.30;3.30;;;;;;;-3.48;91.40;101363.34;5032092;28;20039;-68
2023/02/06 04:17:02;;;;;;;6.27;3.70;;;;;;;-3.86;92.11;101310.53;5032010;28;20106;-68
2023/02/06 04:19:27;;;;;;;5.93;3.40;;;;;;;-3.51;92.44;101365.53;5031719;28;20037;-68
2023/02/06 04:21:53;;;;;;;7.90;4.00;;;;;;;-3.53;92.05;101370.41;5031874;28;20032;-68
2023/02/06 04:24:18;;;;;;;5.93;3.17;;;;;;;-3.53;92.44;101367.88;5031454;28;20037;-68
2023/02/06 04:26:44;;;;;;;7.33;3.53;;;;;;;-3.57;92.61;101370.81;5031753;28;20087;-68
2023/02/06 04:29:11;;;;;;;6.97;3.53;;;;;;;-3.58;93.37;101367.41;5031719;28;20022;-68
2023/02/06 04:31:37;;;;;;;6.40;3.27;;;;;;;-3.52;93.51;101369.69;5031439;28;20116;-68
2023/02/06 04:34:03;;;;;;;6.77;3.10;;;;;;;-3.52;93.49;101369.69;5031614;28;20108;-68
2023/02/06 04:36:28;;;;;;;7.23;3.30;;;;;;;-3.47;93.61;101373.59;5037889;28;20514;-68
2023/02/06 04:38:53;;;;;;;6.20;3.13;;;;;;;-3.51;93.83;101381.56;5011492;28;1151345;-68
2023/02/06 04:41:19;;;;;;;6.50;3.60;;;;;;;-3.47;93.76;101376.13;5052541;28;20376;-68
2023/02/06 04:43:44;;;;;;;7.00;3.43;;;;;;;-3.47;94.08;101373.59;5052513;28;20021;-68
2023/02/06 04:46:10;;;;;;;8.00;3.87;;;;;;;-3.74;94.55;101327.00;5051149;28;20021;-68
2023/02/06 04:48:36;;;;;;;4.17;2.30;;;;;;;-3.48;93.87;101376.84;5052436;28;20021;-68
2023/02/06 04:51:02;;;;;;;7.90;3.50;;;;;;;-3.44;94.14;101388.16;5052691;28;20021;-68
2023/02/06 04:53:27;;;;;;;6.60;3.57;;;;;;;-3.44;93.71;101384.03;5052065;28;20025;-68
2023/02/06 04:55:55;;;;;;;6.80;3.03;;;;;;;-3.41;94.12;101396.09;5052279;28;20111;-67
2023/02/06 04:58:20;;;;;;;6.57;3.73;;;;;;;-3.38;94.42;101398.94;5052258;28;20478;-67
2023/02/06 05:00:46;;;;;;;5.60;2.83;;;;;;;-3.44;94.62;101381.50;5052358;28;20167;-67
2023/02/06 05:03:11;;;;;;;6.77;3.60;;;;;;;-3.34;94.48;101392.56;5052226;28;20029;-67
2023/02/06 05:05:37;;;;;;;6.67;3.40;;;;;;;-3.35;94.86;101403.41;5052079;28;20107;-67
2023/02/06 05:08:02;;;;;;;6.40;3.37;;;;;;;-3.31;94.69;101401.38;5034031;28;20108;-67
2023/02/06 05:10:29;;;;;;;5.70;3.40;;;;;;;-3.28;94.87;101414.34;5052069;28;20021;-68
2023/02/06 05:12:55;;;;;;;5.47;3.30;;;;;;;-3.28;95.77;101416.88;5052127;28;20028;-68
2023/02/06 05:15:21;;;;;;;5.83;3.10;;;;;;;-3.56;95.87;101372.63;5051803;28;20025;-67
2023/02/06 05:17:46;;;;;;;6.10;3.63;;;;;;;-3.44;96.17;101396.66;5051657;28;20043;-67
2023/02/06 05:20:12;;;;;;;5.80;2.73;;;;;;;-3.30;96.34;101428.44;5051734;28;20029;-67
2023/02/06 05:22:37;;;;;;;5.60;3.10;;;;;;;-3.27;96.45;101420.28;5051513;28;20032;-67
2023/02/06 05:25:02;;;;;;;5.97;3.30;;;;;;;-3.33;97.03;101407.00;5034876;28;20076;-66
2023/02/06 05:27:28;;;;;;;5.73;3.47;;;;;;;-3.25;97.37;101421.34;5031508;28;20108;-67
2023/02/06 05:29:56;;;;;;;7.53;3.33;;;;;;;-3.26;97.18;101419.56;5031544;28;20033;-66
2023/02/06 05:32:22;;;;;;;7.97;3.67;;;;;;;-3.22;97.33;101421.66;5031506;28;20511;-67
2023/02/06 05:34:47;;;;;;;6.00;3.60;;;;;;;-3.15;97.62;101439.28;5031444;28;20108;-67
2023/02/06 05:37:13;;;;;;;7.57;3.53;;;;;;;-3.11;97.19;101441.38;5031566;28;20104;-67
2023/02/06 05:39:38;;;;;;;6.70;3.23;;;;;;;-3.10;98.06;101443.19;5031803;28;20192;-67
2023/02/06 05:42:03;;;;;;;6.97;3.00;;;;;;;-3.12;97.88;101449.69;5031982;28;20041;-67
2023/02/06 05:44:29;;;;;;;4.80;3.00;;;;;;;-3.20;97.71;101434.44;5031138;28;20095;-67
2023/02/06 05:46:55;;;;;;;6.27;3.80;;;;;;;-3.13;98.41;101458.03;5031132;28;20483;-67
2023/02/06 05:49:20;;;;;;;13.50;3.63;;;;;;;-3.34;98.44;101400.16;4989396;28;20070;-66
2023/02/06 05:51:46;;;;;;;5.80;3.23;;;;;;;-3.09;98.75;101447.50;4989350;28;20121;-66
2023/02/06 05:54:12;;;;;;;8.93;3.87;;;;;;;-3.01;98.53;101453.38;4989575;28;20042;-67
2023/02/06 05:56:37;;;;;;;5.33;3.07;;;;;;;-2.98;98.69;101462.91;4989223;28;20081;-67
2023/02/06 05:59:03;;;;;;;6.97;3.40;;;;;;;-2.93;99.21;101469.34;4989496;28;20113;-67
2023/02/06 06:01:28;;;;;;;6.37;3.13;;;;;;;-2.89;98.93;101465.53;4989428;28;20143;-67
2023/02/06 06:03:54;;;;;;;4.93;3.13;;;;;;;-2.83;98.70;101483.88;4989665;28;20149;-66
2023/02/06 06:06:19;;;;;;;7.83;3.50;;;;;;;-2.79;98.67;101485.97;4989120;28;20034;-67
2023/02/06 06:08:45;;;;;;;5.70;3.47;;;;;;;-2.72;98.91;101492.59;4988521;28;20049;-67
2023/02/06 06:11:10;;;;;;;6.13;3.67;;;;;;;-2.66;98.42;101490.72;4972178;28;20125;-67
2023/02/06 06:13:36;;;;;;;9.07;4.00;;;;;;;-2.64;98.16;101476.63;4973522;28;20039;-68
2023/02/06 06:16:02;;;;;;;6.23;3.90;;;;;;;-2.53;98.05;101496.34;4989467;28;20077;-67
2023/02/06 06:18:27;;;;;;;6.80;3.67;;;;;;;-2.58;97.94;101479.78;4980857;28;20042;-68
2023/02/06 06:20:52;;;;;;;7.93;3.40;;;;;;;-2.42;98.17;101494.06;5008523;28;20046;-69
2023/02/06 06:23:18;;;;;;;8.97;4.10;;;;;;;-2.30;98.43;101500.41;5028131;28;20029;-71
2023/02/06 06:25:46;;;;;;;6.63;3.40;;;;;;;-2.32;98.61;101495.19;5043087;28;20026;-68
2023/02/06 06:28:11;;;;;;;6.60;3.60;;;;;;;-2.22;98.93;101504.59;5042770;28;20021;-68
2023/02/06 06:30:37;;;;;;;11.80;3.97;;;;;;;-2.34;99.08;101478.94;5036198;28;20152;-68
2023/02/06 06:33:03;;;;;;;7.30;3.87;;;;;;;-2.19;98.35;101492.31;5044259;28;20029;-67
2023/02/06 06:35:28;;;;;;;15.80;4.20;;;;;;;-2.14;97.76;101501.25;5041117;28;20411;-68
2023/02/06 06:37:53;;;;;;;16.90;4.73;;;;;;;-2.48;97.37;101443.72;5049597;28;20029;-68
2023/02/06 06:40:19;;;;;;;25.33;4.50;;;;;;;-2.17;97.56;101489.91;5037384;28;20030;-68
2023/02/06 06:42:44;;;;;;;16.57;5.37;;;;;;;-2.48;96.76;101444.63;4997634;28;20064;-67
2023/02/06 06:45:10;;;;;;;19.30;4.40;;;;;;;-2.28;96.13;101478.69;5037794;28;20756;-68
2023/02/06 06:47:35;;;;;;;29.97;5.20;;;;;;;-2.29;95.92;101474.38;5048328;28;20560;-68
2023/02/06 06:50:01;;;;;;;10.73;3.80;;;;;;;-2.22;95.76;101502.09;5049769;28;20032;-67
2023/02/06 06:52:26;;;;;;;36.97;4.73;;;;;;;-2.18;95.93;101498.25;5030682;28;20075;-67
2023/02/06 06:54:52;;;;;;;24.50;4.10;;;;;;;-2.16;95.53;101507.78;5040583;28;20029;-67
2023/02/06 06:57:18;;;;;;;15.83;3.93;;;;;;;-2.12;96.01;101509.00;5027650;28;20476;-69
2023/02/06 06:59:43;;;;;;;20.93;3.73;;;;;;;-2.17;96.27;101497.50;5030681;28;20395;-68
2023/02/06 07:02:09;;;;;;;17.93;5.53;;;;;;;-2.05;95.50;101524.09;5028475;28;20168;-68
2023/02/06 07:04:35;;;;;;;8.40;3.70;;;;;;;-2.03;95.40;101520.09;5029272;28;20515;-68
2023/02/06 07:07:00;;;;;;;14.60;4.80;;;;;;;-1.99;95.57;101516.25;5025331;28;20122;-69
2023/02/06 07:09:26;;;;;;;10.97;3.70;;;;;;;-2.02;95.33;101513.38;5023963;28;20365;-67
2023/02/06 07:11:51;;;;;;;9.40;3.93;;;;;;;-1.96;95.20;101529.22;5023434;28;20049;-67
2023/02/06 07:14:16;;;;;;;10.77;3.27;;;;;;;-1.97;95.57;101524.88;5004095;28;20483;-67
2023/02/06 07:16:42;;;;;;;14.93;3.93;;;;;;;-1.96;95.43;101529.22;5025467;28;20029;-68
2023/02/06 07:19:08;;;;;;;6.20;3.73;;;;;;;-1.95;94.94;101524.31;5033664;28;20110;-67
2023/02/06 07:21:34;;;;;;;9.07;3.10;;;;;;;-1.89;95.41;101525.72;5034118;28;20025;-68
2023/02/06 07:24:03;;;;;;;6.63;3.53;;;;;;;-1.86;94.62;101526.88;5034090;28;20415;-68
2023/02/06 07:26:28;;;;;;;5.97;2.92;;;;;;;-1.84;94.31;101537.19;5033604;28;20109;-68
2023/02/06 07:28:54;;;;;;;5.63;3.00;;;;;;;-1.80;93.93;101535.13;5033583;28;20040;-68
2023/02/06 07:31:20;;;;;;;8.97;3.83;;;;;;;-2.05;93.84;101470.06;5033576;28;20021;-67
2023/02/06 07:33:46;;;;;;;8.13;3.53;;;;;;;-1.64;94.14;101532.53;5033475;28;20087;-67
2023/02/06 07:36:14;;;;;;;6.00;2.83;;;;;;;-1.58;92.51;101519.63;5033594;28;20463;-67
2023/02/06 07:38:40;;;;;;;5.23;3.07;;;;;;;-1.55;92.40;101532.59;5033566;28;20065;-68
2023/02/06 07:41:06;;;;;;;6.60;3.00;;;;;;;-1.50;91.82;101525.47;5033650;28;20402;-68
2023/02/06 07:43:32;;;;;;;5.07;3.10;;;;;;;-1.48;91.48;101527.41;5033353;28;20029;-67
2023/02/06 07:46:03;;;;;;;8.53;3.40;;;;;;;-1.35;91.20;101529.53;5033443;28;20033;-67
2023/02/06 07:55:12;;;;;;;5.80;3.33;;;;;;;-0.88;90.82;101534.19;5026235;28;20061;-69
2023/02/06 07:57:37;;;;;;;4.97;2.80;;;;;;;-0.67;90.00;101530.38;5022298;28;20472;-67
2023/02/06 08:00:04;;;;;;;5.37;2.50;;;;;;;-0.63;86.91;101529.91;5013316;28;20403;-67
2023/02/06 08:02:31;;;;;;;5.53;2.63;;;;;;;-0.85;86.92;101499.91;5013370;28;20088;-69
2023/02/06 08:04:56;;;;;;;5.17;2.87;;;;;;;-0.53;85.57;101546.94;5013132;28;20061;-67
2023/02/06 08:07:21;;;;;;;6.27;3.20;;;;;;;-0.43;86.15;101553.81;5013340;28;20034;-67
2023/02/06 08:09:47;;;;;;;7.17;2.90;;;;;;;-0.41;85.55;101560.84;4995470;28;20462;-66
2023/02/06 08:12:12;;;;;;;6.70;3.77;;;;;;;-0.36;85.67;101549.50;5013210;28;20033;-67
2023/02/06 08:14:38;;;;;;;9.80;3.50;;;;;;;-0.19;85.84;101560.38;5013372;28;20022;-66
2023/02/06 08:17:03;;;;;;;11.37;5.10;;;;;;;-0.20;84.43;101545.91;5012986;28;20091;-67
2023/02/06 08:19:29;;;;;;;6.37;2.80;;;;;;;-0.18;84.72;101560.53;5012582;28;20502;-66
2023/02/06 08:21:54;;;;;;;7.43;3.43;;;;;;;-0.46;83.94;101525.59;5013146;28;20459;-67
2023/02/06 08:24:20;;;;;;;7.60;3.40;;;;;;;-0.33;85.27;101565.00;5011829;28;20025;-67
2023/02/06 08:26:45;;;;;;;6.10;2.80;;;;;;;-0.35;84.06;101565.59;5012789;28;20030;-68
2023/02/06 08:29:13;;;;;;;6.97;3.00;;;;;;;-0.34;84.02;101562.31;4978177;28;20107;-68
2023/02/06 08:31:40;;;;;;;8.83;6.50;;;;;;;-0.25;84.67;101554.72;5012721;28;20401;-68
2023/02/06 08:34:08;;;;;;;10.60;5.53;;;;;;;-0.34;83.78;101562.31;5012837;28;20040;-67
2023/02/06 08:36:34;;;;;;;8.10;3.67;;;;;;;-0.35;84.52;101558.00;5012868;28;20052;-68
2023/02/06 08:39:01;;;;;;;8.83;4.00;;;;;;;-0.33;85.30;101557.41;5012410;28;20050;-68
2023/02/06 08:41:29;;;;;;;6.90;3.67;;;;;;;-0.24;85.26;101572.63;5012423;28;20072;-67
2023/02/06 08:43:57;;;;;;;4.35;2.45;;;;;;;-0.26;85.21;101576.66;5012677;28;20065;-68
2023/02/06 08:46:27;;;;;;;6.07;3.37;;;;;;;-0.29;85.83;101578.91;5012658;28;20042;-68
2023/02/06 08:48:57;;;;;;;4.70;2.55;;;;;;;-0.45;84.71;101545.16;5012554;28;20033;-68
2023/02/06 08:51:26;;;;;;;4.97;2.87;;;;;;;-0.15;86.13;101584.44;5012736;28;20768;-68
2023/02/06 08:54:12;;;;;;;5.70;2.97;;;;;;;-0.16;84.77;101568.31;5012274;28;20408;-69
2023/02/06 08:56:38;;;;;;;4.97;2.90;;;;;;;0.01;84.97;101576.66;5011631;28;20064;-69
2023/02/06 08:59:05;;;;;;;6.57;2.80;;;;;;;-0.29;83.54;101539.94;5011913;28;20511;-69
2023/02/06 09:01:33;;;;;;;5.10;2.83;;;;;;;-0.09;83.50;101592.66;5012314;28;20033;-69
2023/02/06 09:04:01;;;;;;;8.90;3.40;;;;;;;-0.12;83.70;101587.28;5012170;28;20106;-69
2023/02/06 09:06:27;;;;;;;10.50;3.63;;;;;;;0.10;85.43;101591.16;5012071;28;20026;-69
2023/02/06 09:08:54;;;;;;;20.20;5.23;;;;;;;0.22;83.84;101599.06;5011907;28;20423;-69
2023/02/06 09:11:21;;;;;;;19.73;4.87;;;;;;;0.15;84.00;101586.53;5011917;28;20026;-69
2023/02/06 09:13:48;;;;;;;14.63;6.27;;;;;;;0.03;82.20;101580.28;5012048;28;20033;-69
2023/02/06 09:16:15;;;;;;;7.67;3.07;;;;;;;0.17;82.98;101590.09;5012061;28;20041;-69
2023/02/06 09:18:41;;;;;;;5.10;2.83;;;;;;;0.27;82.65;101586.81;5011840;28;20037;-69
2023/02/06 09:21:10;;;;;;;9.90;4.20;;;;;;;0.25;82.44;101593.38;5011812;28;20160;-70
2023/02/06 09:23:39;;;;;;;10.27;4.67;;;;;;;0.23;83.33;101590.69;5012067;28;20159;-69
2023/02/06 09:26:05;;;;;;;;;;;;;;;0.22;82.90;101588.00;5012474;28;20543;-69
2023/02/06 09:28:31;;;;;;;16.43;5.23;;;;;;;0.25;82.26;101583.22;5011654;28;19913;-69
2023/02/06 09:30:56;;;;;;;5.70;2.97;;;;;;;0.31;81.60;101572.00;5011220;28;20030;-69
2023/02/06 09:33:22;;;;;;;13.93;3.47;;;;;;;0.38;81.88;101576.03;5011259;28;20495;-69
2023/02/06 09:35:47;;;;;;;19.60;3.37;;;;;;;0.42;82.55;101575.56;5011555;28;20396;-69
2023/02/06 09:38:13;;;;;;;18.90;6.33;;;;;;;0.31;82.13;101558.41;5011488;28;20132;-69
2023/02/06 09:40:39;;;;;;;16.93;3.37;;;;;;;0.27;81.60;101556.31;5011290;28;20041;-70
2023/02/06 09:43:05;;;;;;;29.63;5.83;;;;;;;0.41;81.96;101566.19;5011297;28;20086;-69
2023/02/06 09:45:32;;;;;;;13.47;3.40;;;;;;;0.38;80.81;101558.25;4976660;28;20049;-69
2023/02/06 09:48:13;;;;;;;45.53;4.80;;;;;;;0.46;80.65;101551.34;5011492;28;20040;-69
2023/02/06 09:50:52;;;;;;;41.97;4.80;;;;;;;0.43;79.72;101562.13;5011269;28;20041;-69
2023/02/06 09:53:22;;;;;;;13.40;3.03;;;;;;;0.41;80.23;101555.09;5011402;28;20032;-69
2023/02/06 09:56:01;;;;;;;9.90;3.07;;;;;;;0.48;80.84;101545.66;5003709;28;20022;-68
2023/02/06 09:58:40;;;;;;;10.82;3.20;;;;;;;0.37;80.13;101495.47;5010950;28;20531;-69
2023/02/06 10:01:12;;;;;;;6.00;3.35;;;;;;;0.61;81.24;101547.72;5025087;28;20033;-69
2023/02/06 10:04:11;;;;;;;7.73;2.17;;;;;;;0.57;81.96;101547.28;5015294;28;20057;-69
2023/02/06 10:06:46;;;;;;;;;;;;;;;0.61;81.05;101532.47;5025244;28;20029;-69
2023/02/06 10:09:20;;;;;;;20.67;3.70;;;;;;;0.58;79.67;101521.13;5011042;28;20398;-69
2023/02/06 10:11:53;;;;;;;12.73;2.67;;;;;;;0.73;81.12;101517.47;5010923;28;20118;-68
2023/02/06 10:14:42;;;;;;;12.67;3.27;;;;;;;0.83;81.40;101516.69;5009726;28;20488;-67
2023/02/06 10:17:20;;;;;;;7.57;2.97;;;;;;;0.93;80.93;101518.44;5011105;28;20061;-67
2023/02/06 10:19:53;;;;;;;6.17;2.90;;;;;;;0.91;79.58;101525.00;5010875;28;20038;-68
2023/02/06 10:22:25;;;;;;;9.43;2.90;;;;;;;0.87;81.03;101516.19;5010947;28;20041;-69
2023/02/06 10:24:56;;;;;;;4.10;2.27;;;;;;;1.10;80.18;101520.00;5023525;28;20099;-69
2023/02/06 10:27:22;;;;;;;7.07;3.00;;;;;;;1.05;79.35;101519.56;5030729;28;20083;-68
2023/02/06 10:29:47;;;;;;;19.57;3.93;;;;;;;1.11;80.01;101517.59;5030731;28;20037;-69
2023/02/06 10:32:36;;;;;;;16.70;4.37;;;;;;;1.02;78.96;101526.91;5030397;28;20041;-69
2023/02/06 10:35:18;;;;;;;9.73;3.63;;;;;;;1.18;79.90;101515.59;5030406;28;20037;-69
2023/02/06 10:37:55;;;;;;;4.07;2.50;;;;;;;1.25;79.48;101497.63;5010737;28;20026;-68
2023/02/06 10:40:48;;;;;;;5.07;2.77;;;;;;;1.37;78.89;101529.25;4966203;28;20051;-68
2023/02/06 10:43:42;;;;;;;6.13;2.80;;;;;;;1.44;79.75;101521.41;4970911;28;20034;-68
2023/02/06 10:46:07;;;;;;;3.50;2.20;;;;;;;1.21;78.37;101524.41;4973572;28;20059;-68
2023/02/06 10:48:35;;;;;;;5.87;2.97;;;;;;;1.15;79.78;101507.69;4973373;28;20038;-68
2023/02/06 10:51:07;;;;;;;6.30;3.20;;;;;;;1.31;79.28;101528.69;4956952;28;20049;-68
2023/02/06 10:53:40;;;;;;;9.17;3.00;;;;;;;1.44;80.00;101525.59;4973302;28;20039;-68
2023/02/06 10:56:12;;;;;;;4.60;2.50;;;;;;;1.27;78.94;101516.44;4973388;28;20046;-68
2023/02/06 10:58:44;;;;;;;7.87;2.57;;;;;;;1.17;79.50;101527.41;4973182;28;20456;-68
2023/02/06 11:01:13;;;;;;;7.40;2.80;;;;;;;1.22;79.97;101528.75;4973175;28;20046;-67
2023/02/06 11:03:47;;;;;;;4.87;2.63;;;;;;;1.20;80.50;101514.09;4973174;28;20039;-68
2023/02/06 11:06:16;;;;;;;4.40;2.70;;;;;;;1.21;79.90;101524.41;4972785;28;20043;-67
2023/02/06 11:08:44;;;;;;;4.88;2.50;;;;;;;0.89;80.73;101512.16;4973064;28;20030;-68
2023/02/06 11:11:26;;;;;;;3.83;2.40;;;;;;;1.10;80.65;101527.63;4997573;28;20036;-67
2023/02/06 11:14:19;;;;;;;3.87;2.30;;;;;;;0.93;80.63;101528.59;5027361;28;20041;-67
2023/02/06 11:16:46;;;;;;;4.90;2.63;;;;;;;0.87;80.88;101516.19;4953403;29;20040;-68
2023/02/06 11:19:14;;;;;;;4.07;2.70;;;;;;;0.80;79.76;101486.78;4953578;29;20040;-68
2023/02/06 11:21:40;;;;;;;4.67;2.90;;;;;;;0.83;79.63;101485.28;4953603;29;20043;-68
2023/02/06 11:24:11;;;;;;;11.83;2.67;;;;;;;1.06;79.92;101517.91;4953400;29;20501;-66
2023/02/06 11:26:47;;;;;;;4.70;2.27;;;;;;;0.92;80.04;101521.72;4953538;29;20046;-67
2023/02/06 11:29:18;;;;;;;8.13;3.20;;;;;;;0.77;80.84;101489.06;4953352;29;20608;-67
2023/02/06 11:32:07;;;;;;;3.73;2.40;;;;;;;1.18;81.77;101510.53;4953304;29;20049;-68
2023/02/06 11:34:37;;;;;;;5.73;2.57;;;;;;;1.32;80.56;101515.22;4952989;29;20445;-67
2023/02/06 11:37:25;;;;;;;3.37;2.00;;;;;;;1.36;78.81;101506.19;4953430;29;20039;-67
2023/02/06 11:39:52;;;;;;;11.83;2.90;;;;;;;1.48;79.26;101506.44;4953108;29;20062;-67
2023/02/06 11:42:20;;;;;;;5.70;3.53;;;;;;;1.61;78.09;101502.56;4953122;29;20035;-67
2023/02/06 11:44:49;;;;;;;7.10;2.40;;;;;;;1.48;77.54;101450.44;4953234;29;20043;-67
2023/02/06 11:47:33;;;;;;;6.60;2.72;;;;;;;1.83;77.00;101495.94;4936817;29;20097;-67